createdAt,value
2018-07-04T21:00:03.166Z,60.52
2018-07-04T21:03:26.988Z,60.86
2018-07-04T21:06:07.760Z,60.39
2018-07-04T21:08:47.663Z,60.32
2018-07-04T21:11:28.390Z,60.23
2018-07-04T21:14:08.323Z,60.25
2018-07-04T21:16:48.214Z,60.05
2018-07-04T21:19:28.313Z,59.75
2018-07-04T21:22:08.311Z,59.93
2018-07-04T21:24:48.327Z,59.77
2018-07-04T21:27:28.611Z,59.54
2018-07-04T21:30:08.647Z,59.82
2018-07-04T21:32:49.119Z,59.85
2018-07-04T21:35:29.854Z,59.66
2018-07-04T21:38:10.286Z,59.69
2018-07-04T21:40:50.182Z,60.40
2018-07-04T21:43:30.454Z,59.69
2018-07-04T21:46:11.208Z,59.70
2018-07-04T21:48:51.569Z,59.40
2018-07-04T21:51:32.097Z,59.53
2018-07-04T21:54:12.315Z,59.26
2018-07-04T21:56:52.539Z,59.43
2018-07-04T21:59:32.638Z,59.19
2018-07-04T22:02:12.550Z,59.54
2018-07-04T22:04:52.784Z,59.26
2018-07-04T22:07:33.512Z,58.85
2018-07-04T22:10:13.652Z,59.01
2018-07-04T22:12:53.574Z,59.08
2018-07-04T22:15:33.790Z,59.24
2018-07-04T22:18:13.923Z,58.91
2018-07-04T22:20:53.982Z,58.95
2018-07-04T22:23:34.014Z,58.75
2018-07-04T22:26:15.201Z,59.18
2018-07-04T22:28:55.342Z,59.09
2018-07-04T22:31:36.778Z,59.35
2018-07-04T22:34:16.992Z,59.43
2018-07-04T22:36:57.257Z,59.26
2018-07-04T22:39:37.726Z,59.73
2018-07-04T22:42:18.731Z,59.42
2018-07-04T22:45:00.388Z,59.50
2018-07-04T22:47:40.860Z,59.39
2018-07-04T22:50:20.790Z,59.79
2018-07-04T22:53:01.332Z,59.54
2018-07-04T22:55:41.198Z,59.65
2018-07-04T22:58:21.588Z,59.62
2018-07-04T23:01:01.829Z,59.84
2018-07-04T23:03:42.504Z,59.89
2018-07-04T23:06:22.459Z,59.89
2018-07-04T23:09:02.690Z,60.03
2018-07-04T23:11:42.853Z,59.38
2018-07-04T23:14:23.140Z,59.84
2018-07-04T23:17:03.212Z,59.80
2018-07-04T23:19:43.850Z,59.78
2018-07-04T23:22:23.703Z,59.51
2018-07-04T23:25:03.619Z,59.70
2018-07-04T23:27:43.904Z,59.33
2018-07-04T23:30:24.156Z,59.15
2018-07-04T23:33:04.108Z,59.42
2018-07-04T23:35:44.421Z,59.42
2018-07-04T23:38:24.418Z,59.41
2018-07-04T23:41:04.790Z,59.48
2018-07-04T23:43:44.877Z,59.29
2018-07-04T23:46:26.110Z,59.03
2018-07-04T23:49:06.165Z,58.84
2018-07-04T23:51:46.519Z,58.90
2018-07-04T23:54:26.441Z,58.71
2018-07-04T23:57:06.885Z,58.85
2018-07-04T23:59:47.068Z,58.06
